Puvirnituq Airport
CYPX : now visible

Airfield :











YOU CAN JOIN US ON...

 
LOGIN :

Register | Disclaimer

   EN    FR    IT 

 









Legend :    VFR   Marginal VFR   IFR   Intensive IFR   Very Intensive IFR
Visi :
Ceiling :
>= 8 km
>= 3000ft
5 to 8 km
1000 to 3000 ft
1500m to 5 km
500 to 1000 ft
800 to 1500m
200 to 500 ft
< 800m
< 200 ft
Symbols :   Thunderstorms  Fog  Heavy snow  Heavy precipitations  Wind > 20 kt






- Airport Elevation : 74 ft
- IATA code : YPX


CYPX - Puvirnituq

CURRENT METAR :
  • 161000Z AUTO 33017KT 3SM -SN FEW018 M13/M14 A2949 RMK SLP990

EXPIRED METARs :
  • 160952Z AUTO 33018KT 2SM -SN SCT016 M13/M14 A2948 RMK SLP989
  • 160948Z AUTO 33019KT 1 1/2SM -SN SCT016 M13/M14 A2948 RMK SLP989
  • 160900Z AUTO 33020KT 1 1/4SM -SN OVC010 M14/M15 A2949 RMK SLP991
  • 160800Z AUTO 32019KT 1 1/4SM -SN OVC012 M15/M16 A2949 RMK SLP991

TAF TAF CYPX
Valid from the 16 at 06:00 until the 16 at 18:00 UTC


160538Z 1606/1618 32020G30KT 21/2SM -SN FEW006 OVC010
TEMPO 1606/1618 3/4SM -SN BLSN VV006
BECMG 1608/1610 32025G35KT RMK FCST BASED ON AUTO OBS. NXT FCST BY 161200Z



MET'MAP, your aeronautical weather chart ! - Copyright ORBIFLY December 2007 - Disclaimer

ORBIFLY MET'MAP TEAM :

Programming & Development : Alexandra Zaïnal
Concept & original design : Baudouin d'Aumeries
Assistance for programming : Marc-Olivier Méhu
Technical & hardware support : Manuel Goepfert

Contact : metmap@orbifly.com




SOURCES & CREDITS :

   NOAA       Earth
Advisory